sensor_id;sensor_type;location;lat;lon;timestamp;P1;durP1;ratioP1;P2;durP2;ratioP2
54705;SDS011;40603;48.774;8.916;2023-04-01T00:01:42;3.97;;;0.60;;
54705;SDS011;40603;48.774;8.916;2023-04-01T00:04:07;0.98;;;0.45;;
54705;SDS011;40603;48.774;8.916;2023-04-01T00:06:32;2.67;;;0.77;;
54705;SDS011;40603;48.774;8.916;2023-04-01T00:08:58;3.47;;;0.52;;
54705;SDS011;40603;48.774;8.916;2023-04-01T00:11:23;3.20;;;0.70;;
54705;SDS011;40603;48.774;8.916;2023-04-01T00:13:49;5.90;;;1.30;;
54705;SDS011;40603;48.774;8.916;2023-04-01T00:16:15;3.35;;;0.75;;
54705;SDS011;40603;48.774;8.916;2023-04-01T00:18:40;0.98;;;0.50;;
54705;SDS011;40603;48.774;8.916;2023-04-01T00:21:06;2.28;;;0.55;;
54705;SDS011;40603;48.774;8.916;2023-04-01T00:23:31;2.75;;;0.65;;
54705;SDS011;40603;48.774;8.916;2023-04-01T00:25:58;2.13;;;0.50;;
54705;SDS011;40603;48.774;8.916;2023-04-01T00:28:25;3.33;;;0.63;;
54705;SDS011;40603;48.774;8.916;2023-04-01T00:30:51;3.90;;;0.60;;
54705;SDS011;40603;48.774;8.916;2023-04-01T00:33:16;2.30;;;0.40;;
54705;SDS011;40603;48.774;8.916;2023-04-01T00:35:42;2.85;;;0.43;;
54705;SDS011;40603;48.774;8.916;2023-04-01T00:38:07;3.88;;;1.02;;
54705;SDS011;40603;48.774;8.916;2023-04-01T00:40:37;2.42;;;0.40;;
54705;SDS011;40603;48.774;8.916;2023-04-01T00:43:10;4.55;;;0.68;;
54705;SDS011;40603;48.774;8.916;2023-04-01T00:45:39;7.07;;;0.90;;
54705;SDS011;40603;48.774;8.916;2023-04-01T00:48:07;3.38;;;0.50;;
54705;SDS011;40603;48.774;8.916;2023-04-01T00:50:35;5.35;;;0.90;;
54705;SDS011;40603;48.774;8.916;2023-04-01T00:53:02;0.80;;;0.47;;
54705;SDS011;40603;48.774;8.916;2023-04-01T00:55:28;4.13;;;1.00;;
54705;SDS011;40603;48.774;8.916;2023-04-01T00:57:56;2.53;;;0.70;;
54705;SDS011;40603;48.774;8.916;2023-04-01T01:00:22;2.65;;;0.70;;
54705;SDS011;40603;48.774;8.916;2023-04-01T01:02:47;1.58;;;0.70;;
54705;SDS011;40603;48.774;8.916;2023-04-01T01:05:14;4.78;;;0.65;;
54705;SDS011;40603;48.774;8.916;2023-04-01T01:07:50;5.25;;;0.82;;
54705;SDS011;40603;48.774;8.916;2023-04-01T01:10:17;0.73;;;0.40;;
54705;SDS011;40603;48.774;8.916;2023-04-01T01:12:45;4.10;;;0.80;;
54705;SDS011;40603;48.774;8.916;2023-04-01T01:15:20;1.55;;;0.70;;
54705;SDS011;40603;48.774;8.916;2023-04-01T01:26:34;3.20;;;0.50;;
54705;SDS011;40603;48.774;8.916;2023-04-01T01:34:36;0.93;;;0.50;;
54705;SDS011;40603;48.774;8.916;2023-04-01T01:37:11;1.23;;;0.50;;
54705;SDS011;40603;48.774;8.916;2023-04-01T01:39:38;3.75;;;0.70;;
54705;SDS011;40603;48.774;8.916;2023-04-01T01:42:06;0.82;;;0.57;;
54705;SDS011;40603;48.774;8.916;2023-04-01T01:44:35;1.52;;;0.50;;
54705;SDS011;40603;48.774;8.916;2023-04-01T01:47:01;2.10;;;0.60;;
54705;SDS011;40603;48.774;8.916;2023-04-01T01:49:27;1.65;;;0.57;;
54705;SDS011;40603;48.774;8.916;2023-04-01T01:51:55;1.58;;;0.50;;
54705;SDS011;40603;48.774;8.916;2023-04-01T01:54:21;2.15;;;0.43;;
54705;SDS011;40603;48.774;8.916;2023-04-01T01:56:47;0.93;;;0.47;;
54705;SDS011;40603;48.774;8.916;2023-04-01T01:59:14;1.75;;;0.47;;
54705;SDS011;40603;48.774;8.916;2023-04-01T02:01:42;0.40;;;0.40;;
54705;SDS011;40603;48.774;8.916;2023-04-01T02:04:09;2.40;;;0.40;;
54705;SDS011;40603;48.774;8.916;2023-04-01T02:06:37;3.28;;;0.47;;
54705;SDS011;40603;48.774;8.916;2023-04-01T02:09:04;1.02;;;0.35;;
54705;SDS011;40603;48.774;8.916;2023-04-01T02:14:22;2.08;;;0.70;;
54705;SDS011;40603;48.774;8.916;2023-04-01T02:16:51;2.83;;;0.57;;
54705;SDS011;40603;48.774;8.916;2023-04-01T02:19:20;3.65;;;0.60;;
54705;SDS011;40603;48.774;8.916;2023-04-01T02:21:51;4.07;;;0.80;;
54705;SDS011;40603;48.774;8.916;2023-04-01T02:24:18;1.20;;;0.50;;
54705;SDS011;40603;48.774;8.916;2023-04-01T02:26:47;0.82;;;0.50;;
54705;SDS011;40603;48.774;8.916;2023-04-01T02:29:13;3.22;;;0.60;;
54705;SDS011;40603;48.774;8.916;2023-04-01T02:31:39;1.63;;;0.50;;
54705;SDS011;40603;48.774;8.916;2023-04-01T02:34:04;1.83;;;0.40;;
54705;SDS011;40603;48.774;8.916;2023-04-01T02:36:30;1.55;;;0.40;;
54705;SDS011;40603;48.774;8.916;2023-04-01T02:38:55;3.13;;;0.47;;
54705;SDS011;40603;48.774;8.916;2023-04-01T02:41:21;0.43;;;0.30;;
54705;SDS011;40603;48.774;8.916;2023-04-01T02:43:46;1.95;;;0.65;;
54705;SDS011;40603;48.774;8.916;2023-04-01T02:46:11;2.22;;;0.50;;
54705;SDS011;40603;48.774;8.916;2023-04-01T02:48:37;2.85;;;0.50;;
54705;SDS011;40603;48.774;8.916;2023-04-01T02:51:02;2.05;;;0.50;;
54705;SDS011;40603;48.774;8.916;2023-04-01T02:53:27;1.48;;;0.40;;
54705;SDS011;40603;48.774;8.916;2023-04-01T02:55:53;1.20;;;0.47;;
54705;SDS011;40603;48.774;8.916;2023-04-01T02:58:18;3.15;;;0.63;;
54705;SDS011;40603;48.774;8.916;2023-04-01T03:00:43;3.03;;;0.73;;
54705;SDS011;40603;48.774;8.916;2023-04-01T03:03:09;2.05;;;0.80;;
54705;SDS011;40603;48.774;8.916;2023-04-01T03:05:35;2.50;;;0.63;;
54705;SDS011;40603;48.774;8.916;2023-04-01T03:08:00;0.35;;;0.30;;
54705;SDS011;40603;48.774;8.916;2023-04-01T03:10:27;2.15;;;0.55;;
54705;SDS011;40603;48.774;8.916;2023-04-01T03:12:52;1.05;;;0.38;;
54705;SDS011;40603;48.774;8.916;2023-04-01T03:15:18;1.70;;;0.43;;
54705;SDS011;40603;48.774;8.916;2023-04-01T03:17:43;2.85;;;0.50;;
54705;SDS011;40603;48.774;8.916;2023-04-01T03:20:09;1.20;;;0.52;;
54705;SDS011;40603;48.774;8.916;2023-04-01T03:22:35;2.60;;;0.40;;
54705;SDS011;40603;48.774;8.916;2023-04-01T03:25:01;1.50;;;0.40;;
54705;SDS011;40603;48.774;8.916;2023-04-01T03:27:27;2.55;;;0.57;;
54705;SDS011;40603;48.774;8.916;2023-04-01T03:29:53;1.45;;;0.30;;
54705;SDS011;40603;48.774;8.916;2023-04-01T03:32:18;3.83;;;0.98;;
54705;SDS011;40603;48.774;8.916;2023-04-01T03:34:43;0.30;;;0.28;;
54705;SDS011;40603;48.774;8.916;2023-04-01T03:37:09;1.35;;;0.40;;
54705;SDS011;40603;48.774;8.916;2023-04-01T03:39:34;1.88;;;0.52;;
54705;SDS011;40603;48.774;8.916;2023-04-01T03:42:00;2.38;;;0.40;;
54705;SDS011;40603;48.774;8.916;2023-04-01T03:44:25;4.30;;;0.60;;
54705;SDS011;40603;48.774;8.916;2023-04-01T03:46:50;2.05;;;0.40;;
54705;SDS011;40603;48.774;8.916;2023-04-01T03:49:16;1.45;;;0.20;;
54705;SDS011;40603;48.774;8.916;2023-04-01T03:51:42;1.40;;;0.45;;
54705;SDS011;40603;48.774;8.916;2023-04-01T03:54:08;1.23;;;0.40;;
54705;SDS011;40603;48.774;8.916;2023-04-01T03:56:34;2.58;;;0.40;;
54705;SDS011;40603;48.774;8.916;2023-04-01T03:59:03;2.22;;;0.40;;
54705;SDS011;40603;48.774;8.916;2023-04-01T04:01:29;1.45;;;0.50;;
54705;SDS011;40603;48.774;8.916;2023-04-01T04:03:56;0.70;;;0.35;;
54705;SDS011;40603;48.774;8.916;2023-04-01T04:06:21;1.85;;;0.40;;
54705;SDS011;40603;48.774;8.916;2023-04-01T04:08:47;1.83;;;0.40;;
54705;SDS011;40603;48.774;8.916;2023-04-01T04:11:13;0.22;;;0.22;;
54705;SDS011;40603;48.774;8.916;2023-04-01T04:13:38;1.20;;;0.30;;
54705;SDS011;40603;48.774;8.916;2023-04-01T04:16:04;5.43;;;0.40;;
54705;SDS011;40603;48.774;8.916;2023-04-01T04:18:29;1.52;;;0.60;;
54705;SDS011;40603;48.774;8.916;2023-04-01T04:20:55;2.30;;;0.47;;
54705;SDS011;40603;48.774;8.916;2023-04-01T04:23:20;3.28;;;0.50;;
54705;SDS011;40603;48.774;8.916;2023-04-01T04:25:56;2.40;;;0.40;;
54705;SDS011;40603;48.774;8.916;2023-04-01T04:28:35;1.38;;;0.50;;
54705;SDS011;40603;48.774;8.916;2023-04-01T04:31:00;1.85;;;0.75;;
54705;SDS011;40603;48.774;8.916;2023-04-01T04:33:26;2.33;;;0.52;;
54705;SDS011;40603;48.774;8.916;2023-04-01T04:35:54;0.88;;;0.40;;
54705;SDS011;40603;48.774;8.916;2023-04-01T04:38:20;2.53;;;0.40;;
54705;SDS011;40603;48.774;8.916;2023-04-01T04:40:45;2.42;;;0.80;;
54705;SDS011;40603;48.774;8.916;2023-04-01T04:43:11;1.45;;;0.60;;
54705;SDS011;40603;48.774;8.916;2023-04-01T04:45:37;1.08;;;0.50;;
54705;SDS011;40603;48.774;8.916;2023-04-01T04:48:02;1.05;;;0.50;;
54705;SDS011;40603;48.774;8.916;2023-04-01T04:50:28;0.70;;;0.43;;
54705;SDS011;40603;48.774;8.916;2023-04-01T04:52:53;1.45;;;0.50;;
54705;SDS011;40603;48.774;8.916;2023-04-01T04:55:18;3.92;;;0.30;;
54705;SDS011;40603;48.774;8.916;2023-04-01T04:57:44;1.95;;;0.90;;
54705;SDS011;40603;48.774;8.916;2023-04-01T05:00:09;4.35;;;0.70;;
54705;SDS011;40603;48.774;8.916;2023-04-01T05:02:36;1.30;;;0.45;;
54705;SDS011;40603;48.774;8.916;2023-04-01T05:05:01;3.08;;;0.50;;
54705;SDS011;40603;48.774;8.916;2023-04-01T05:07:26;3.03;;;0.63;;
54705;SDS011;40603;48.774;8.916;2023-04-01T05:09:52;1.48;;;0.57;;
54705;SDS011;40603;48.774;8.916;2023-04-01T05:12:17;0.95;;;0.50;;
54705;SDS011;40603;48.774;8.916;2023-04-01T05:14:42;4.28;;;0.80;;
54705;SDS011;40603;48.774;8.916;2023-04-01T05:17:08;1.50;;;0.50;;
54705;SDS011;40603;48.774;8.916;2023-04-01T05:19:35;2.92;;;0.65;;
54705;SDS011;40603;48.774;8.916;2023-04-01T05:22:00;8.10;;;0.57;;
54705;SDS011;40603;48.774;8.916;2023-04-01T05:24:25;5.13;;;0.63;;
54705;SDS011;40603;48.774;8.916;2023-04-01T05:26:51;3.88;;;0.68;;
54705;SDS011;40603;48.774;8.916;2023-04-01T05:29:16;4.50;;;0.60;;
54705;SDS011;40603;48.774;8.916;2023-04-01T05:31:41;2.10;;;0.47;;
54705;SDS011;40603;48.774;8.916;2023-04-01T05:34:07;4.25;;;1.15;;
54705;SDS011;40603;48.774;8.916;2023-04-01T05:36:32;5.30;;;0.75;;
54705;SDS011;40603;48.774;8.916;2023-04-01T05:38:58;6.93;;;0.80;;
54705;SDS011;40603;48.774;8.916;2023-04-01T05:41:23;2.95;;;0.40;;
54705;SDS011;40603;48.774;8.916;2023-04-01T05:43:48;2.78;;;0.60;;
54705;SDS011;40603;48.774;8.916;2023-04-01T05:46:14;3.75;;;0.65;;
54705;SDS011;40603;48.774;8.916;2023-04-01T05:48:40;3.50;;;0.52;;
54705;SDS011;40603;48.774;8.916;2023-04-01T05:51:05;1.95;;;0.73;;
54705;SDS011;40603;48.774;8.916;2023-04-01T05:53:30;2.42;;;0.70;;
54705;SDS011;40603;48.774;8.916;2023-04-01T05:55:56;1.55;;;0.52;;
54705;SDS011;40603;48.774;8.916;2023-04-01T05:58:21;2.85;;;0.65;;
54705;SDS011;40603;48.774;8.916;2023-04-01T06:00:46;4.30;;;0.63;;
54705;SDS011;40603;48.774;8.916;2023-04-01T06:03:12;1.15;;;0.35;;
54705;SDS011;40603;48.774;8.916;2023-04-01T06:05:41;2.08;;;0.47;;
54705;SDS011;40603;48.774;8.916;2023-04-01T06:13:12;0.95;;;0.40;;
54705;SDS011;40603;48.774;8.916;2023-04-01T06:16:02;3.28;;;0.50;;
54705;SDS011;40603;48.774;8.916;2023-04-01T06:26:31;0.70;;;0.35;;
54705;SDS011;40603;48.774;8.916;2023-04-01T06:34:30;1.10;;;0.45;;
54705;SDS011;40603;48.774;8.916;2023-04-01T06:37:30;6.00;;;0.70;;
54705;SDS011;40603;48.774;8.916;2023-04-01T06:40:21;2.47;;;0.50;;
54705;SDS011;40603;48.774;8.916;2023-04-01T06:45:59;2.17;;;0.30;;
54705;SDS011;40603;48.774;8.916;2023-04-01T06:53:51;0.80;;;0.40;;
54705;SDS011;40603;48.774;8.916;2023-04-01T06:56:19;1.33;;;0.60;;
54705;SDS011;40603;48.774;8.916;2023-04-01T06:58:49;0.30;;;0.30;;
54705;SDS011;40603;48.774;8.916;2023-04-01T07:01:18;0.60;;;0.43;;
54705;SDS011;40603;48.774;8.916;2023-04-01T07:08:50;1.27;;;0.55;;
54705;SDS011;40603;48.774;8.916;2023-04-01T07:11:23;2.15;;;0.50;;
54705;SDS011;40603;48.774;8.916;2023-04-01T07:13:52;0.60;;;0.40;;
54705;SDS011;40603;48.774;8.916;2023-04-01T07:16:21;0.75;;;0.55;;
54705;SDS011;40603;48.774;8.916;2023-04-01T07:21:40;0.40;;;0.25;;
54705;SDS011;40603;48.774;8.916;2023-04-01T07:24:24;2.90;;;0.60;;
54705;SDS011;40603;48.774;8.916;2023-04-01T07:26:55;0.70;;;0.50;;
54705;SDS011;40603;48.774;8.916;2023-04-01T07:29:21;3.45;;;0.50;;
54705;SDS011;40603;48.774;8.916;2023-04-01T07:32:00;3.15;;;0.68;;
54705;SDS011;40603;48.774;8.916;2023-04-01T07:34:59;0.70;;;0.43;;
54705;SDS011;40603;48.774;8.916;2023-04-01T07:40:21;1.33;;;0.35;;
54705;SDS011;40603;48.774;8.916;2023-04-01T08:04:51;1.25;;;0.35;;
54705;SDS011;40603;48.774;8.916;2023-04-01T08:07:20;3.35;;;0.50;;
54705;SDS011;40603;48.774;8.916;2023-04-01T08:09:55;1.63;;;0.50;;
54705;SDS011;40603;48.774;8.916;2023-04-01T08:15:26;2.08;;;0.50;;
54705;SDS011;40603;48.774;8.916;2023-04-01T08:18:03;0.60;;;0.50;;
54705;SDS011;40603;48.774;8.916;2023-04-01T08:20:48;0.45;;;0.40;;
54705;SDS011;40603;48.774;8.916;2023-04-01T08:23:17;0.88;;;0.55;;
54705;SDS011;40603;48.774;8.916;2023-04-01T08:25:51;1.58;;;0.60;;
54705;SDS011;40603;48.774;8.916;2023-04-01T08:28:24;1.30;;;0.50;;
54705;SDS011;40603;48.774;8.916;2023-04-01T08:33:41;3.47;;;0.70;;
54705;SDS011;40603;48.774;8.916;2023-04-01T08:41:37;1.42;;;0.60;;
54705;SDS011;40603;48.774;8.916;2023-04-01T08:47:20;2.75;;;0.50;;
54705;SDS011;40603;48.774;8.916;2023-04-01T08:55:04;1.95;;;0.50;;
54705;SDS011;40603;48.774;8.916;2023-04-01T08:58:02;0.93;;;0.50;;
54705;SDS011;40603;48.774;8.916;2023-04-01T09:11:17;1.15;;;0.40;;
54705;SDS011;40603;48.774;8.916;2023-04-01T09:14:17;1.17;;;0.30;;
54705;SDS011;40603;48.774;8.916;2023-04-01T09:17:14;0.50;;;0.50;;
54705;SDS011;40603;48.774;8.916;2023-04-01T09:31:41;0.25;;;0.25;;
54705;SDS011;40603;48.774;8.916;2023-04-01T09:34:30;0.25;;;0.25;;
54705;SDS011;40603;48.774;8.916;2023-04-01T09:39:37;0.55;;;0.40;;
54705;SDS011;40603;48.774;8.916;2023-04-01T09:42:10;0.22;;;0.22;;
54705;SDS011;40603;48.774;8.916;2023-04-01T09:44:58;0.35;;;0.20;;
54705;SDS011;40603;48.774;8.916;2023-04-01T09:50:52;0.20;;;0.20;;
54705;SDS011;40603;48.774;8.916;2023-04-01T09:53:57;0.30;;;0.20;;
54705;SDS011;40603;48.774;8.916;2023-04-01T10:07:50;0.40;;;0.30;;
54705;SDS011;40603;48.774;8.916;2023-04-01T10:10:41;1.05;;;0.38;;
54705;SDS011;40603;48.774;8.916;2023-04-01T10:16:18;0.25;;;0.25;;
54705;SDS011;40603;48.774;8.916;2023-04-01T10:18:53;1.65;;;0.30;;
54705;SDS011;40603;48.774;8.916;2023-04-01T10:21:41;0.20;;;0.20;;
54705;SDS011;40603;48.774;8.916;2023-04-01T10:35:47;0.17;;;0.17;;
54705;SDS011;40603;48.774;8.916;2023-04-01T10:44:23;0.20;;;0.20;;
54705;SDS011;40603;48.774;8.916;2023-04-01T10:53:16;0.30;;;0.30;;
54705;SDS011;40603;48.774;8.916;2023-04-01T11:12:37;0.20;;;0.20;;
54705;SDS011;40603;48.774;8.916;2023-04-01T11:15:23;0.85;;;0.20;;
54705;SDS011;40603;48.774;8.916;2023-04-01T11:27:15;0.20;;;0.20;;
54705;SDS011;40603;48.774;8.916;2023-04-01T11:32:46;0.20;;;0.20;;
54705;SDS011;40603;48.774;8.916;2023-04-01T11:35:24;0.32;;;0.20;;
54705;SDS011;40603;48.774;8.916;2023-04-01T11:38:09;0.20;;;0.20;;
54705;SDS011;40603;48.774;8.916;2023-04-01T11:46:39;0.35;;;0.15;;
54705;SDS011;40603;48.774;8.916;2023-04-01T11:49:20;0.20;;;0.20;;
54705;SDS011;40603;48.774;8.916;2023-04-01T11:54:44;1.42;;;0.20;;
54705;SDS011;40603;48.774;8.916;2023-04-01T12:03:02;0.38;;;0.20;;
54705;SDS011;40603;48.774;8.916;2023-04-01T12:05:51;0.20;;;0.20;;
54705;SDS011;40603;48.774;8.916;2023-04-01T12:14:11;0.10;;;0.10;;
54705;SDS011;40603;48.774;8.916;2023-04-01T12:16:44;0.20;;;0.20;;
54705;SDS011;40603;48.774;8.916;2023-04-01T12:19:43;0.20;;;0.20;;
54705;SDS011;40603;48.774;8.916;2023-04-01T12:25:22;0.35;;;0.32;;
54705;SDS011;40603;48.774;8.916;2023-04-01T12:28:09;0.47;;;0.35;;
54705;SDS011;40603;48.774;8.916;2023-04-01T12:30:41;1.80;;;0.30;;
54705;SDS011;40603;48.774;8.916;2023-04-01T12:33:15;0.10;;;0.10;;
54705;SDS011;40603;48.774;8.916;2023-04-01T12:47:21;0.35;;;0.20;;
54705;SDS011;40603;48.774;8.916;2023-04-01T12:52:42;1.27;;;0.20;;
54705;SDS011;40603;48.774;8.916;2023-04-01T12:58:14;0.52;;;0.30;;
54705;SDS011;40603;48.774;8.916;2023-04-01T13:09:55;0.20;;;0.20;;
54705;SDS011;40603;48.774;8.916;2023-04-01T13:15:25;0.30;;;0.30;;
54705;SDS011;40603;48.774;8.916;2023-04-01T13:20:37;0.98;;;0.30;;
54705;SDS011;40603;48.774;8.916;2023-04-01T13:23:24;0.10;;;0.10;;
54705;SDS011;40603;48.774;8.916;2023-04-01T13:26:01;0.40;;;0.30;;
54705;SDS011;40603;48.774;8.916;2023-04-01T13:28:38;1.38;;;0.20;;
54705;SDS011;40603;48.774;8.916;2023-04-01T13:31:07;0.15;;;0.15;;
54705;SDS011;40603;48.774;8.916;2023-04-01T13:33:50;0.30;;;0.30;;
54705;SDS011;40603;48.774;8.916;2023-04-01T13:36:29;1.08;;;0.30;;
54705;SDS011;40603;48.774;8.916;2023-04-01T13:39:20;0.20;;;0.20;;
54705;SDS011;40603;48.774;8.916;2023-04-01T13:42:15;0.30;;;0.20;;
54705;SDS011;40603;48.774;8.916;2023-04-01T13:47:24;0.10;;;0.10;;
54705;SDS011;40603;48.774;8.916;2023-04-01T13:55:53;0.20;;;0.20;;
54705;SDS011;40603;48.774;8.916;2023-04-01T13:58:27;0.20;;;0.20;;
54705;SDS011;40603;48.774;8.916;2023-04-01T14:01:05;1.85;;;0.25;;
54705;SDS011;40603;48.774;8.916;2023-04-01T14:06:31;0.20;;;0.20;;
54705;SDS011;40603;48.774;8.916;2023-04-01T14:09:20;0.68;;;0.30;;
54705;SDS011;40603;48.774;8.916;2023-04-01T14:11:56;0.30;;;0.30;;
54705;SDS011;40603;48.774;8.916;2023-04-01T14:14:46;0.43;;;0.20;;
54705;SDS011;40603;48.774;8.916;2023-04-01T14:26:02;0.20;;;0.20;;
54705;SDS011;40603;48.774;8.916;2023-04-01T14:28:40;0.20;;;0.20;;
54705;SDS011;40603;48.774;8.916;2023-04-01T14:31:41;0.30;;;0.30;;
54705;SDS011;40603;48.774;8.916;2023-04-01T14:42:31;0.90;;;0.30;;
54705;SDS011;40603;48.774;8.916;2023-04-01T14:48:07;0.20;;;0.20;;
54705;SDS011;40603;48.774;8.916;2023-04-01T14:50:44;0.30;;;0.30;;
54705;SDS011;40603;48.774;8.916;2023-04-01T14:53:13;0.30;;;0.30;;
54705;SDS011;40603;48.774;8.916;2023-04-01T14:55:53;0.20;;;0.20;;
54705;SDS011;40603;48.774;8.916;2023-04-01T14:58:21;0.40;;;0.30;;
54705;SDS011;40603;48.774;8.916;2023-04-01T15:01:36;0.40;;;0.30;;
54705;SDS011;40603;48.774;8.916;2023-04-01T15:06:36;0.30;;;0.30;;
54705;SDS011;40603;48.774;8.916;2023-04-01T15:12:01;0.20;;;0.20;;
54705;SDS011;40603;48.774;8.916;2023-04-01T15:14:51;0.85;;;0.30;;
54705;SDS011;40603;48.774;8.916;2023-04-01T15:30:54;0.30;;;0.30;;
54705;SDS011;40603;48.774;8.916;2023-04-01T15:33:29;0.32;;;0.30;;
54705;SDS011;40603;48.774;8.916;2023-04-01T15:36:21;0.28;;;0.28;;
54705;SDS011;40603;48.774;8.916;2023-04-01T15:39:24;0.20;;;0.20;;
54705;SDS011;40603;48.774;8.916;2023-04-01T15:42:15;1.13;;;0.38;;
54705;SDS011;40603;48.774;8.916;2023-04-01T15:49:52;0.20;;;0.20;;
54705;SDS011;40603;48.774;8.916;2023-04-01T15:55:16;0.20;;;0.20;;
54705;SDS011;40603;48.774;8.916;2023-04-01T16:03:35;0.47;;;0.20;;
54705;SDS011;40603;48.774;8.916;2023-04-01T16:11:29;0.73;;;0.20;;
54705;SDS011;40603;48.774;8.916;2023-04-01T16:17:00;0.70;;;0.32;;
54705;SDS011;40603;48.774;8.916;2023-04-01T16:19:36;0.40;;;0.35;;
54705;SDS011;40603;48.774;8.916;2023-04-01T16:27:27;0.40;;;0.35;;
54705;SDS011;40603;48.774;8.916;2023-04-01T16:38:23;0.40;;;0.40;;
54705;SDS011;40603;48.774;8.916;2023-04-01T16:41:05;1.05;;;0.50;;
54705;SDS011;40603;48.774;8.916;2023-04-01T16:49:04;0.47;;;0.43;;
54705;SDS011;40603;48.774;8.916;2023-04-01T16:51:44;1.55;;;0.55;;
54705;SDS011;40603;48.774;8.916;2023-04-01T16:54:17;1.48;;;0.45;;
54705;SDS011;40603;48.774;8.916;2023-04-01T16:59:26;1.17;;;0.60;;
54705;SDS011;40603;48.774;8.916;2023-04-01T17:01:54;0.65;;;0.43;;
54705;SDS011;40603;48.774;8.916;2023-04-01T17:04:25;0.50;;;0.40;;
54705;SDS011;40603;48.774;8.916;2023-04-01T17:07:14;1.20;;;0.50;;
54705;SDS011;40603;48.774;8.916;2023-04-01T17:12:24;0.47;;;0.47;;
54705;SDS011;40603;48.774;8.916;2023-04-01T17:15:01;0.75;;;0.60;;
54705;SDS011;40603;48.774;8.916;2023-04-01T17:18:06;0.77;;;0.55;;
54705;SDS011;40603;48.774;8.916;2023-04-01T17:20:43;4.32;;;0.82;;
54705;SDS011;40603;48.774;8.916;2023-04-01T17:23:19;3.60;;;0.95;;
54705;SDS011;40603;48.774;8.916;2023-04-01T17:33:57;0.80;;;0.50;;
54705;SDS011;40603;48.774;8.916;2023-04-01T17:36:31;1.23;;;0.60;;
54705;SDS011;40603;48.774;8.916;2023-04-01T17:39:13;1.35;;;0.52;;
54705;SDS011;40603;48.774;8.916;2023-04-01T17:41:54;1.33;;;0.60;;
54705;SDS011;40603;48.774;8.916;2023-04-01T17:44:28;2.72;;;0.77;;
54705;SDS011;40603;48.774;8.916;2023-04-01T17:49:36;2.25;;;1.40;;
54705;SDS011;40603;48.774;8.916;2023-04-01T17:52:12;3.13;;;1.58;;
54705;SDS011;40603;48.774;8.916;2023-04-01T17:55:26;2.63;;;1.35;;
54705;SDS011;40603;48.774;8.916;2023-04-01T18:09:15;1.75;;;0.93;;
54705;SDS011;40603;48.774;8.916;2023-04-01T18:12:07;2.25;;;0.65;;
54705;SDS011;40603;48.774;8.916;2023-04-01T18:17:25;1.00;;;0.70;;
54705;SDS011;40603;48.774;8.916;2023-04-01T18:20:07;0.57;;;0.57;;
54705;SDS011;40603;48.774;8.916;2023-04-01T18:25:42;1.80;;;0.50;;
54705;SDS011;40603;48.774;8.916;2023-04-01T18:31:07;1.95;;;0.35;;
54705;SDS011;40603;48.774;8.916;2023-04-01T18:36:13;0.75;;;0.60;;
54705;SDS011;40603;48.774;8.916;2023-04-01T18:38:57;2.85;;;0.50;;
54705;SDS011;40603;48.774;8.916;2023-04-01T18:41:32;1.65;;;0.52;;
54705;SDS011;40603;48.774;8.916;2023-04-01T18:46:57;2.50;;;0.70;;
54705;SDS011;40603;48.774;8.916;2023-04-01T18:49:42;2.50;;;0.73;;
54705;SDS011;40603;48.774;8.916;2023-04-01T19:00:26;0.60;;;0.60;;
54705;SDS011;40603;48.774;8.916;2023-04-01T19:03:11;1.33;;;0.80;;
54705;SDS011;40603;48.774;8.916;2023-04-01T19:05:44;2.33;;;1.08;;
54705;SDS011;40603;48.774;8.916;2023-04-01T19:11:17;2.08;;;1.10;;
54705;SDS011;40603;48.774;8.916;2023-04-01T19:16:48;1.85;;;0.80;;
54705;SDS011;40603;48.774;8.916;2023-04-01T19:19:39;5.13;;;0.80;;
54705;SDS011;40603;48.774;8.916;2023-04-01T19:27:42;2.70;;;0.90;;
54705;SDS011;40603;48.774;8.916;2023-04-01T19:30:19;3.63;;;1.20;;
54705;SDS011;40603;48.774;8.916;2023-04-01T19:38:53;3.15;;;1.20;;
54705;SDS011;40603;48.774;8.916;2023-04-01T19:41:38;2.05;;;1.33;;
54705;SDS011;40603;48.774;8.916;2023-04-01T19:47:02;4.50;;;1.80;;
54705;SDS011;40603;48.774;8.916;2023-04-01T19:49:38;5.47;;;1.63;;
54705;SDS011;40603;48.774;8.916;2023-04-01T19:54:43;1.73;;;0.77;;
54705;SDS011;40603;48.774;8.916;2023-04-01T20:00:09;1.17;;;0.90;;
54705;SDS011;40603;48.774;8.916;2023-04-01T20:02:45;4.65;;;1.52;;
54705;SDS011;40603;48.774;8.916;2023-04-01T20:05:27;1.33;;;0.70;;
54705;SDS011;40603;48.774;8.916;2023-04-01T20:13:39;2.33;;;0.70;;
54705;SDS011;40603;48.774;8.916;2023-04-01T20:16:11;1.17;;;0.70;;
54705;SDS011;40603;48.774;8.916;2023-04-01T20:18:37;2.15;;;1.25;;
54705;SDS011;40603;48.774;8.916;2023-04-01T20:21:15;1.00;;;0.77;;
54705;SDS011;40603;48.774;8.916;2023-04-01T20:23:50;0.63;;;0.43;;
54705;SDS011;40603;48.774;8.916;2023-04-01T20:26:22;1.52;;;0.57;;
54705;SDS011;40603;48.774;8.916;2023-04-01T20:37:27;1.65;;;0.55;;
54705;SDS011;40603;48.774;8.916;2023-04-01T20:43:03;1.65;;;0.80;;
54705;SDS011;40603;48.774;8.916;2023-04-01T20:48:26;0.80;;;0.50;;
54705;SDS011;40603;48.774;8.916;2023-04-01T20:50:57;0.88;;;0.70;;
54705;SDS011;40603;48.774;8.916;2023-04-01T20:53:41;0.73;;;0.50;;
54705;SDS011;40603;48.774;8.916;2023-04-01T20:58:51;0.75;;;0.47;;
54705;SDS011;40603;48.774;8.916;2023-04-01T21:01:25;1.52;;;0.80;;
54705;SDS011;40603;48.774;8.916;2023-04-01T21:04:02;1.10;;;0.63;;
54705;SDS011;40603;48.774;8.916;2023-04-01T21:12:30;1.40;;;0.80;;
54705;SDS011;40603;48.774;8.916;2023-04-01T21:15:39;1.35;;;0.60;;
54705;SDS011;40603;48.774;8.916;2023-04-01T21:20:55;0.50;;;0.50;;
54705;SDS011;40603;48.774;8.916;2023-04-01T21:23:31;1.17;;;0.60;;
54705;SDS011;40603;48.774;8.916;2023-04-01T21:34:07;0.50;;;0.50;;
54705;SDS011;40603;48.774;8.916;2023-04-01T21:40:05;1.75;;;0.60;;
54705;SDS011;40603;48.774;8.916;2023-04-01T21:59:05;1.38;;;0.50;;
54705;SDS011;40603;48.774;8.916;2023-04-01T22:06:56;1.10;;;0.68;;
54705;SDS011;40603;48.774;8.916;2023-04-01T22:09:29;0.65;;;0.40;;
54705;SDS011;40603;48.774;8.916;2023-04-01T22:14:51;1.35;;;0.65;;
54705;SDS011;40603;48.774;8.916;2023-04-01T22:17:59;2.45;;;0.40;;
54705;SDS011;40603;48.774;8.916;2023-04-01T22:20:32;0.43;;;0.32;;
54705;SDS011;40603;48.774;8.916;2023-04-01T22:23:20;0.95;;;0.40;;
54705;SDS011;40603;48.774;8.916;2023-04-01T22:25:56;0.63;;;0.50;;
54705;SDS011;40603;48.774;8.916;2023-04-01T22:28:29;3.03;;;0.40;;
54705;SDS011;40603;48.774;8.916;2023-04-01T22:31:00;0.32;;;0.30;;
54705;SDS011;40603;48.774;8.916;2023-04-01T22:36:36;0.65;;;0.32;;
54705;SDS011;40603;48.774;8.916;2023-04-01T22:44:31;0.98;;;0.50;;
54705;SDS011;40603;48.774;8.916;2023-04-01T22:47:04;1.33;;;0.45;;
54705;SDS011;40603;48.774;8.916;2023-04-01T22:55:29;0.52;;;0.40;;
54705;SDS011;40603;48.774;8.916;2023-04-01T22:58:04;0.35;;;0.35;;
54705;SDS011;40603;48.774;8.916;2023-04-01T23:00:39;1.85;;;0.60;;
54705;SDS011;40603;48.774;8.916;2023-04-01T23:03:11;2.47;;;0.55;;
54705;SDS011;40603;48.774;8.916;2023-04-01T23:05:49;1.35;;;0.50;;
54705;SDS011;40603;48.774;8.916;2023-04-01T23:11:31;0.73;;;0.50;;
54705;SDS011;40603;48.774;8.916;2023-04-01T23:19:37;0.40;;;0.40;;
54705;SDS011;40603;48.774;8.916;2023-04-01T23:27:16;0.50;;;0.40;;
54705;SDS011;40603;48.774;8.916;2023-04-01T23:29:45;0.50;;;0.40;;
54705;SDS011;40603;48.774;8.916;2023-04-01T23:32:18;0.50;;;0.40;;
54705;SDS011;40603;48.774;8.916;2023-04-01T23:34:51;1.80;;;0.70;;
54705;SDS011;40603;48.774;8.916;2023-04-01T23:37:17;0.52;;;0.30;;
54705;SDS011;40603;48.774;8.916;2023-04-01T23:39:46;0.43;;;0.40;;
54705;SDS011;40603;48.774;8.916;2023-04-01T23:44:50;0.40;;;0.40;;
54705;SDS011;40603;48.774;8.916;2023-04-01T23:47:18;0.90;;;0.75;;
54705;SDS011;40603;48.774;8.916;2023-04-01T23:49:47;1.52;;;0.50;;
54705;SDS011;40603;48.774;8.916;2023-04-01T23:52:19;0.70;;;0.63;;
54705;SDS011;40603;48.774;8.916;2023-04-01T23:54:48;1.40;;;0.60;;